sensor_id;sensor_type;location;lat;lon;timestamp;temperature;humidity
76577;DHT22;65441;44.748;37.600;2023-06-10T00:00:08;20.83;73.40
76577;DHT22;65441;44.748;37.600;2023-06-10T00:02:40;20.86;73.75
76577;DHT22;65441;44.748;37.600;2023-06-10T00:05:09;20.85;73.28
76577;DHT22;65441;44.748;37.600;2023-06-10T00:07:39;20.81;73.07
76577;DHT22;65441;44.748;37.600;2023-06-10T00:10:09;20.77;75.12
76577;DHT22;65441;44.748;37.600;2023-06-10T00:12:39;20.68;76.25
76577;DHT22;65441;44.748;37.600;2023-06-10T00:15:10;20.71;76.53
76577;DHT22;65441;44.748;37.600;2023-06-10T00:17:39;20.61;77.87
76577;DHT22;65441;44.748;37.600;2023-06-10T00:20:09;20.55;79.14
76577;DHT22;65441;44.748;37.600;2023-06-10T00:22:39;20.49;79.38
76577;DHT22;65441;44.748;37.600;2023-06-10T00:25:09;20.41;78.46
76577;DHT22;65441;44.748;37.600;2023-06-10T00:27:40;20.43;80.92
76577;DHT22;65441;44.748;37.600;2023-06-10T00:30:10;20.44;81.99
76577;DHT22;65441;44.748;37.600;2023-06-10T00:32:39;20.35;82.20
76577;DHT22;65441;44.748;37.600;2023-06-10T00:35:08;20.21;81.62
76577;DHT22;65441;44.748;37.600;2023-06-10T00:37:37;20.12;82.10
76577;DHT22;65441;44.748;37.600;2023-06-10T00:40:07;20.01;81.53
76577;DHT22;65441;44.748;37.600;2023-06-10T00:42:36;20.04;83.16
76577;DHT22;65441;44.748;37.600;2023-06-10T00:45:07;20.07;82.02
76577;DHT22;65441;44.748;37.600;2023-06-10T00:47:37;19.99;83.27
76577;DHT22;65441;44.748;37.600;2023-06-10T00:50:07;19.91;82.01
76577;DHT22;65441;44.748;37.600;2023-06-10T00:52:36;19.85;83.59
76577;DHT22;65441;44.748;37.600;2023-06-10T00:55:06;19.79;84.26
76577;DHT22;65441;44.748;37.600;2023-06-10T00:57:36;19.73;84.41
76577;DHT22;65441;44.748;37.600;2023-06-10T01:00:09;19.68;85.24
76577;DHT22;65441;44.748;37.600;2023-06-10T01:02:38;19.65;85.85
76577;DHT22;65441;44.748;37.600;2023-06-10T01:05:08;19.73;86.29
76577;DHT22;65441;44.748;37.600;2023-06-10T01:07:40;19.75;85.38
76577;DHT22;65441;44.748;37.600;2023-06-10T01:10:18;19.74;85.70
76577;DHT22;65441;44.748;37.600;2023-06-10T01:12:55;19.73;85.32
76577;DHT22;65441;44.748;37.600;2023-06-10T01:15:33;19.71;85.99
76577;DHT22;65441;44.748;37.600;2023-06-10T01:18:04;19.77;86.35
76577;DHT22;65441;44.748;37.600;2023-06-10T01:20:36;19.81;86.62
76577;DHT22;65441;44.748;37.600;2023-06-10T01:23:09;19.81;85.63
76577;DHT22;65441;44.748;37.600;2023-06-10T01:25:39;19.75;85.68
76577;DHT22;65441;44.748;37.600;2023-06-10T01:28:14;19.75;86.03
76577;DHT22;65441;44.748;37.600;2023-06-10T01:30:50;19.79;86.29
76577;DHT22;65441;44.748;37.600;2023-06-10T01:33:25;19.80;86.58
76577;DHT22;65441;44.748;37.600;2023-06-10T01:35:58;19.81;86.30
76577;DHT22;65441;44.748;37.600;2023-06-10T01:38:32;19.84;86.74
76577;DHT22;65441;44.748;37.600;2023-06-10T01:41:03;19.79;86.27
76577;DHT22;65441;44.748;37.600;2023-06-10T01:43:33;19.81;87.25
76577;DHT22;65441;44.748;37.600;2023-06-10T01:46:02;19.80;87.36
76577;DHT22;65441;44.748;37.600;2023-06-10T01:48:31;19.79;87.75
76577;DHT22;65441;44.748;37.600;2023-06-10T01:51:00;19.79;87.41
76577;DHT22;65441;44.748;37.600;2023-06-10T01:53:31;19.83;87.35
76577;DHT22;65441;44.748;37.600;2023-06-10T01:56:00;19.85;86.74
76577;DHT22;65441;44.748;37.600;2023-06-10T01:58:29;19.83;87.01
76577;DHT22;65441;44.748;37.600;2023-06-10T02:00:58;19.84;86.73
76577;DHT22;65441;44.748;37.600;2023-06-10T02:03:27;19.85;86.54
76577;DHT22;65441;44.748;37.600;2023-06-10T02:05:56;19.88;86.95
76577;DHT22;65441;44.748;37.600;2023-06-10T02:08:25;19.82;86.64
76577;DHT22;65441;44.748;37.600;2023-06-10T02:10:56;19.83;87.20
76577;DHT22;65441;44.748;37.600;2023-06-10T02:13:25;19.82;87.23
76577;DHT22;65441;44.748;37.600;2023-06-10T02:15:55;19.86;87.87
76577;DHT22;65441;44.748;37.600;2023-06-10T02:18:24;19.92;86.58
76577;DHT22;65441;44.748;37.600;2023-06-10T02:20:54;19.84;87.48
76577;DHT22;65441;44.748;37.600;2023-06-10T02:23:23;19.86;87.87
76577;DHT22;65441;44.748;37.600;2023-06-10T02:25:52;19.87;87.29
76577;DHT22;65441;44.748;37.600;2023-06-10T02:28:22;19.88;87.70
76577;DHT22;65441;44.748;37.600;2023-06-10T02:30:51;19.84;87.38
76577;DHT22;65441;44.748;37.600;2023-06-10T02:33:21;19.90;87.77
76577;DHT22;65441;44.748;37.600;2023-06-10T02:35:51;19.94;88.06
76577;DHT22;65441;44.748;37.600;2023-06-10T02:38:20;19.95;88.09
76577;DHT22;65441;44.748;37.600;2023-06-10T02:40:50;19.94;87.54
76577;DHT22;65441;44.748;37.600;2023-06-10T02:43:19;19.96;87.45
76577;DHT22;65441;44.748;37.600;2023-06-10T02:45:50;19.91;87.84
76577;DHT22;65441;44.748;37.600;2023-06-10T02:48:19;19.94;87.40
76577;DHT22;65441;44.748;37.600;2023-06-10T02:50:48;19.98;87.83
76577;DHT22;65441;44.748;37.600;2023-06-10T02:53:26;20.01;88.25
76577;DHT22;65441;44.748;37.600;2023-06-10T02:56:03;20.03;87.77
76577;DHT22;65441;44.748;37.600;2023-06-10T02:58:32;20.13;87.57
76577;DHT22;65441;44.748;37.600;2023-06-10T03:01:03;20.15;88.78
76577;DHT22;65441;44.748;37.600;2023-06-10T03:03:41;20.20;86.91
76577;DHT22;65441;44.748;37.600;2023-06-10T03:06:13;20.27;87.86
76577;DHT22;65441;44.748;37.600;2023-06-10T03:08:43;20.34;87.61
76577;DHT22;65441;44.748;37.600;2023-06-10T03:11:16;20.34;86.95
76577;DHT22;65441;44.748;37.600;2023-06-10T03:13:47;20.50;87.32
76577;DHT22;65441;44.748;37.600;2023-06-10T03:16:19;20.45;87.45
76577;DHT22;65441;44.748;37.600;2023-06-10T03:18:49;20.59;87.21
76577;DHT22;65441;44.748;37.600;2023-06-10T03:21:19;20.76;87.51
76577;DHT22;65441;44.748;37.600;2023-06-10T03:23:48;20.81;86.62
76577;DHT22;65441;44.748;37.600;2023-06-10T03:26:17;20.89;86.20
76577;DHT22;65441;44.748;37.600;2023-06-10T03:28:49;21.02;87.72
76577;DHT22;65441;44.748;37.600;2023-06-10T03:31:21;21.06;86.07
76577;DHT22;65441;44.748;37.600;2023-06-10T03:33:53;21.04;86.89
76577;DHT22;65441;44.748;37.600;2023-06-10T03:36:22;21.24;87.68
76577;DHT22;65441;44.748;37.600;2023-06-10T03:38:51;21.15;85.69
76577;DHT22;65441;44.748;37.600;2023-06-10T03:41:22;21.33;86.26
76577;DHT22;65441;44.748;37.600;2023-06-10T03:43:52;21.57;84.95
76577;DHT22;65441;44.748;37.600;2023-06-10T03:46:22;21.60;84.42
76577;DHT22;65441;44.748;37.600;2023-06-10T03:48:51;21.61;84.88
76577;DHT22;65441;44.748;37.600;2023-06-10T03:51:20;21.57;84.07
76577;DHT22;65441;44.748;37.600;2023-06-10T03:53:53;21.66;83.18
76577;DHT22;65441;44.748;37.600;2023-06-10T03:56:23;21.77;83.45
76577;DHT22;65441;44.748;37.600;2023-06-10T03:58:53;21.83;81.91
76577;DHT22;65441;44.748;37.600;2023-06-10T04:01:24;21.90;81.82
76577;DHT22;65441;44.748;37.600;2023-06-10T04:03:54;22.02;81.59
76577;DHT22;65441;44.748;37.600;2023-06-10T04:06:23;22.37;81.26
76577;DHT22;65441;44.748;37.600;2023-06-10T04:08:55;22.64;80.77
76577;DHT22;65441;44.748;37.600;2023-06-10T04:11:25;22.87;80.34
76577;DHT22;65441;44.748;37.600;2023-06-10T04:13:58;22.94;78.88
76577;DHT22;65441;44.748;37.600;2023-06-10T04:16:32;23.02;78.50
76577;DHT22;65441;44.748;37.600;2023-06-10T04:19:03;23.09;77.78
76577;DHT22;65441;44.748;37.600;2023-06-10T04:21:33;23.27;77.84
76577;DHT22;65441;44.748;37.600;2023-06-10T04:24:03;23.36;78.79
76577;DHT22;65441;44.748;37.600;2023-06-10T04:26:34;23.52;76.90
76577;DHT22;65441;44.748;37.600;2023-06-10T04:29:04;23.67;77.05
76577;DHT22;65441;44.748;37.600;2023-06-10T04:31:35;23.74;78.16
76577;DHT22;65441;44.748;37.600;2023-06-10T04:34:05;23.85;76.52
76577;DHT22;65441;44.748;37.600;2023-06-10T04:36:35;23.92;76.87
76577;DHT22;65441;44.748;37.600;2023-06-10T04:39:05;23.94;76.73
76577;DHT22;65441;44.748;37.600;2023-06-10T04:41:35;24.13;75.39
76577;DHT22;65441;44.748;37.600;2023-06-10T04:44:04;24.26;75.18
76577;DHT22;65441;44.748;37.600;2023-06-10T04:46:35;24.45;75.27
76577;DHT22;65441;44.748;37.600;2023-06-10T04:49:04;24.66;73.87
76577;DHT22;65441;44.748;37.600;2023-06-10T04:51:36;24.88;73.08
76577;DHT22;65441;44.748;37.600;2023-06-10T04:54:05;25.19;72.25
76577;DHT22;65441;44.748;37.600;2023-06-10T04:56:36;25.32;70.79
76577;DHT22;65441;44.748;37.600;2023-06-10T04:59:07;25.09;72.30
76577;DHT22;65441;44.748;37.600;2023-06-10T05:01:37;24.91;72.51
76577;DHT22;65441;44.748;37.600;2023-06-10T05:04:07;24.83;74.10
76577;DHT22;65441;44.748;37.600;2023-06-10T05:06:36;24.62;73.99
76577;DHT22;65441;44.748;37.600;2023-06-10T05:09:09;24.55;74.77
76577;DHT22;65441;44.748;37.600;2023-06-10T05:11:40;24.46;74.49
76577;DHT22;65441;44.748;37.600;2023-06-10T05:14:12;24.45;75.30
76577;DHT22;65441;44.748;37.600;2023-06-10T05:16:46;24.49;73.78
76577;DHT22;65441;44.748;37.600;2023-06-10T05:19:18;24.38;76.18
76577;DHT22;65441;44.748;37.600;2023-06-10T05:21:51;24.27;76.42
76577;DHT22;65441;44.748;37.600;2023-06-10T05:24:21;24.41;76.32
76577;DHT22;65441;44.748;37.600;2023-06-10T05:26:50;24.65;76.04
76577;DHT22;65441;44.748;37.600;2023-06-10T05:29:21;24.85;72.79
76577;DHT22;65441;44.748;37.600;2023-06-10T05:31:51;24.79;72.46
76577;DHT22;65441;44.748;37.600;2023-06-10T05:34:25;24.64;73.89
76577;DHT22;65441;44.748;37.600;2023-06-10T05:36:54;24.69;74.21
76577;DHT22;65441;44.748;37.600;2023-06-10T05:39:25;24.79;72.93
76577;DHT22;65441;44.748;37.600;2023-06-10T05:41:56;24.73;73.31
76577;DHT22;65441;44.748;37.600;2023-06-10T05:44:28;24.68;73.35
76577;DHT22;65441;44.748;37.600;2023-06-10T05:47:00;24.75;72.84
76577;DHT22;65441;44.748;37.600;2023-06-10T05:49:31;24.78;74.29
76577;DHT22;65441;44.748;37.600;2023-06-10T05:52:02;24.77;74.09
76577;DHT22;65441;44.748;37.600;2023-06-10T05:54:31;24.92;74.13
76577;DHT22;65441;44.748;37.600;2023-06-10T05:57:01;24.92;73.78
76577;DHT22;65441;44.748;37.600;2023-06-10T05:59:33;24.92;73.40
76577;DHT22;65441;44.748;37.600;2023-06-10T06:02:06;24.84;75.77
76577;DHT22;65441;44.748;37.600;2023-06-10T06:04:35;24.86;74.60
76577;DHT22;65441;44.748;37.600;2023-06-10T06:07:07;24.77;75.41
76577;DHT22;65441;44.748;37.600;2023-06-10T06:09:38;24.55;76.79
76577;DHT22;65441;44.748;37.600;2023-06-10T06:12:09;24.41;76.34
76577;DHT22;65441;44.748;37.600;2023-06-10T06:14:43;24.40;77.18
76577;DHT22;65441;44.748;37.600;2023-06-10T06:17:15;24.33;76.45
76577;DHT22;65441;44.748;37.600;2023-06-10T06:19:46;24.30;77.42
76577;DHT22;65441;44.748;37.600;2023-06-10T06:22:17;24.33;77.31
76577;DHT22;65441;44.748;37.600;2023-06-10T06:24:51;24.25;78.27
76577;DHT22;65441;44.748;37.600;2023-06-10T06:27:22;24.27;77.78
76577;DHT22;65441;44.748;37.600;2023-06-10T06:29:52;24.28;78.36
76577;DHT22;65441;44.748;37.600;2023-06-10T06:32:25;24.31;78.30
76577;DHT22;65441;44.748;37.600;2023-06-10T06:35:00;24.29;78.77
76577;DHT22;65441;44.748;37.600;2023-06-10T06:37:31;24.31;78.92
76577;DHT22;65441;44.748;37.600;2023-06-10T06:40:18;24.43;77.72
76577;DHT22;65441;44.748;37.600;2023-06-10T06:42:50;24.50;78.24
76577;DHT22;65441;44.748;37.600;2023-06-10T06:45:37;24.46;77.01
76577;DHT22;65441;44.748;37.600;2023-06-10T06:48:13;24.47;77.11
76577;DHT22;65441;44.748;37.600;2023-06-10T06:50:43;24.59;76.60
76577;DHT22;65441;44.748;37.600;2023-06-10T06:53:16;24.56;76.24
76577;DHT22;65441;44.748;37.600;2023-06-10T06:55:46;24.87;77.02
76577;DHT22;65441;44.748;37.600;2023-06-10T06:58:16;24.99;75.70
76577;DHT22;65441;44.748;37.600;2023-06-10T07:00:45;25.01;75.53
76577;DHT22;65441;44.748;37.600;2023-06-10T07:03:18;25.16;73.63
76577;DHT22;65441;44.748;37.600;2023-06-10T07:05:52;25.27;73.87
76577;DHT22;65441;44.748;37.600;2023-06-10T07:08:21;25.46;73.54
76577;DHT22;65441;44.748;37.600;2023-06-10T07:10:52;25.63;72.32
76577;DHT22;65441;44.748;37.600;2023-06-10T07:13:23;25.77;72.61
76577;DHT22;65441;44.748;37.600;2023-06-10T07:15:56;25.76;71.64
76577;DHT22;65441;44.748;37.600;2023-06-10T07:18:28;25.73;71.23
76577;DHT22;65441;44.748;37.600;2023-06-10T07:21:00;25.67;72.95
76577;DHT22;65441;44.748;37.600;2023-06-10T07:23:35;25.61;71.59
76577;DHT22;65441;44.748;37.600;2023-06-10T07:26:08;25.56;72.28
76577;DHT22;65441;44.748;37.600;2023-06-10T07:28:43;25.34;73.01
76577;DHT22;65441;44.748;37.600;2023-06-10T07:31:18;25.28;70.88
76577;DHT22;65441;44.748;37.600;2023-06-10T07:33:56;25.13;72.93
76577;DHT22;65441;44.748;37.600;2023-06-10T07:36:27;25.15;71.61
76577;DHT22;65441;44.748;37.600;2023-06-10T07:39:03;25.19;72.22
76577;DHT22;65441;44.748;37.600;2023-06-10T07:41:36;25.34;72.10
76577;DHT22;65441;44.748;37.600;2023-06-10T07:44:10;25.31;73.40
76577;DHT22;65441;44.748;37.600;2023-06-10T07:46:42;25.52;72.64
76577;DHT22;65441;44.748;37.600;2023-06-10T07:49:16;25.60;72.29
76577;DHT22;65441;44.748;37.600;2023-06-10T07:51:50;25.71;71.29
76577;DHT22;65441;44.748;37.600;2023-06-10T07:54:19;25.77;70.05
76577;DHT22;65441;44.748;37.600;2023-06-10T07:56:49;25.97;68.30
76577;DHT22;65441;44.748;37.600;2023-06-10T07:59:22;25.96;70.37
76577;DHT22;65441;44.748;37.600;2023-06-10T08:01:57;25.93;68.60
76577;DHT22;65441;44.748;37.600;2023-06-10T08:04:32;25.96;68.92
76577;DHT22;65441;44.748;37.600;2023-06-10T08:07:05;25.83;67.84
76577;DHT22;65441;44.748;37.600;2023-06-10T08:09:40;25.68;70.08
76577;DHT22;65441;44.748;37.600;2023-06-10T08:12:16;25.42;70.63
76577;DHT22;65441;44.748;37.600;2023-06-10T08:14:49;25.34;70.68
76577;DHT22;65441;44.748;37.600;2023-06-10T08:17:24;25.61;70.53
76577;DHT22;65441;44.748;37.600;2023-06-10T08:19:58;25.89;69.33
76577;DHT22;65441;44.748;37.600;2023-06-10T08:22:29;25.97;68.12
76577;DHT22;65441;44.748;37.600;2023-06-10T08:25:05;25.92;68.17
76577;DHT22;65441;44.748;37.600;2023-06-10T08:27:39;25.97;69.23
76577;DHT22;65441;44.748;37.600;2023-06-10T08:30:14;26.30;68.66
76577;DHT22;65441;44.748;37.600;2023-06-10T08:32:50;26.84;67.61
76577;DHT22;65441;44.748;37.600;2023-06-10T08:35:25;26.92;65.68
76577;DHT22;65441;44.748;37.600;2023-06-10T08:38:03;26.98;65.66
76577;DHT22;65441;44.748;37.600;2023-06-10T08:40:36;26.86;66.38
76577;DHT22;65441;44.748;37.600;2023-06-10T08:43:16;26.64;66.49
76577;DHT22;65441;44.748;37.600;2023-06-10T08:45:51;26.56;67.69
76577;DHT22;65441;44.748;37.600;2023-06-10T08:48:29;26.42;66.75
76577;DHT22;65441;44.748;37.600;2023-06-10T08:51:06;26.57;67.00
76577;DHT22;65441;44.748;37.600;2023-06-10T08:53:42;26.82;67.88
76577;DHT22;65441;44.748;37.600;2023-06-10T08:56:17;26.71;67.69
76577;DHT22;65441;44.748;37.600;2023-06-10T08:58:56;26.68;68.97
76577;DHT22;65441;44.748;37.600;2023-06-10T09:01:32;26.50;69.83
76577;DHT22;65441;44.748;37.600;2023-06-10T09:04:06;26.48;69.13
76577;DHT22;65441;44.748;37.600;2023-06-10T09:06:42;26.39;69.96
76577;DHT22;65441;44.748;37.600;2023-06-10T09:09:14;26.24;70.45
76577;DHT22;65441;44.748;37.600;2023-06-10T09:11:47;25.98;70.87
76577;DHT22;65441;44.748;37.600;2023-06-10T09:14:19;25.83;70.71
76577;DHT22;65441;44.748;37.600;2023-06-10T09:16:51;25.87;71.55
76577;DHT22;65441;44.748;37.600;2023-06-10T09:19:27;25.61;71.36
76577;DHT22;65441;44.748;37.600;2023-06-10T09:21:59;25.67;71.77
76577;DHT22;65441;44.748;37.600;2023-06-10T09:24:31;25.62;71.12
76577;DHT22;65441;44.748;37.600;2023-06-10T09:27:10;25.60;72.59
76577;DHT22;65441;44.748;37.600;2023-06-10T09:29:51;25.44;71.88
76577;DHT22;65441;44.748;37.600;2023-06-10T09:32:26;25.62;71.35
76577;DHT22;65441;44.748;37.600;2023-06-10T09:35:00;26.09;70.74
76577;DHT22;65441;44.748;37.600;2023-06-10T09:37:46;26.23;69.45
76577;DHT22;65441;44.748;37.600;2023-06-10T09:40:17;26.23;69.42
76577;DHT22;65441;44.748;37.600;2023-06-10T09:42:55;26.24;68.97
76577;DHT22;65441;44.748;37.600;2023-06-10T09:45:33;26.28;68.12
76577;DHT22;65441;44.748;37.600;2023-06-10T09:48:06;26.15;69.05
76577;DHT22;65441;44.748;37.600;2023-06-10T09:50:46;25.92;69.64
76577;DHT22;65441;44.748;37.600;2023-06-10T09:53:23;25.76;70.13
76577;DHT22;65441;44.748;37.600;2023-06-10T09:55:58;25.58;70.44
76577;DHT22;65441;44.748;37.600;2023-06-10T09:58:38;25.75;70.32
76577;DHT22;65441;44.748;37.600;2023-06-10T10:01:15;25.80;70.05
76577;DHT22;65441;44.748;37.600;2023-06-10T10:04:06;25.92;69.77
76577;DHT22;65441;44.748;37.600;2023-06-10T10:06:43;25.89;69.87
76577;DHT22;65441;44.748;37.600;2023-06-10T10:09:16;25.95;69.77
76577;DHT22;65441;44.748;37.600;2023-06-10T10:11:50;25.97;69.42
76577;DHT22;65441;44.748;37.600;2023-06-10T10:14:27;25.86;69.81
76577;DHT22;65441;44.748;37.600;2023-06-10T10:17:02;25.77;69.78
76577;DHT22;65441;44.748;37.600;2023-06-10T10:19:40;25.94;69.50
76577;DHT22;65441;44.748;37.600;2023-06-10T10:22:18;26.28;67.94
76577;DHT22;65441;44.748;37.600;2023-06-10T10:24:55;26.18;68.56
76577;DHT22;65441;44.748;37.600;2023-06-10T10:27:33;26.05;68.58
76577;DHT22;65441;44.748;37.600;2023-06-10T10:30:12;25.89;67.94
76577;DHT22;65441;44.748;37.600;2023-06-10T10:33:00;26.07;68.97
76577;DHT22;65441;44.748;37.600;2023-06-10T10:35:38;26.02;69.07
76577;DHT22;65441;44.748;37.600;2023-06-10T10:38:14;26.02;68.48
76577;DHT22;65441;44.748;37.600;2023-06-10T10:40:48;26.02;68.21
76577;DHT22;65441;44.748;37.600;2023-06-10T10:43:27;26.10;68.38
76577;DHT22;65441;44.748;37.600;2023-06-10T10:46:09;26.66;68.23
76577;DHT22;65441;44.748;37.600;2023-06-10T10:48:47;27.21;64.93
76577;DHT22;65441;44.748;37.600;2023-06-10T10:51:27;27.27;64.95
76577;DHT22;65441;44.748;37.600;2023-06-10T10:54:14;27.15;63.97
76577;DHT22;65441;44.748;37.600;2023-06-10T10:57:20;27.55;63.50
76577;DHT22;65441;44.748;37.600;2023-06-10T10:59:57;27.25;64.45
76577;DHT22;65441;44.748;37.600;2023-06-10T11:02:45;26.68;65.57
76577;DHT22;65441;44.748;37.600;2023-06-10T11:05:40;26.66;66.32
76577;DHT22;65441;44.748;37.600;2023-06-10T11:08:48;26.95;65.31
76577;DHT22;65441;44.748;37.600;2023-06-10T11:11:23;26.61;65.03
76577;DHT22;65441;44.748;37.600;2023-06-10T11:14:09;26.62;66.34
76577;DHT22;65441;44.748;37.600;2023-06-10T11:16:40;26.57;66.39
76577;DHT22;65441;44.748;37.600;2023-06-10T11:19:34;26.35;66.84
76577;DHT22;65441;44.748;37.600;2023-06-10T11:22:15;26.16;68.23
76577;DHT22;65441;44.748;37.600;2023-06-10T11:24:48;26.20;66.55
76577;DHT22;65441;44.748;37.600;2023-06-10T11:27:19;26.11;68.22
76577;DHT22;65441;44.748;37.600;2023-06-10T11:30:22;26.34;66.94
76577;DHT22;65441;44.748;37.600;2023-06-10T11:32:55;26.36;69.02
76577;DHT22;65441;44.748;37.600;2023-06-10T11:35:31;26.26;67.43
76577;DHT22;65441;44.748;37.600;2023-06-10T11:38:07;26.46;67.47
76577;DHT22;65441;44.748;37.600;2023-06-10T11:40:37;27.13;66.25
76577;DHT22;65441;44.748;37.600;2023-06-10T11:43:08;27.40;64.98
76577;DHT22;65441;44.748;37.600;2023-06-10T11:45:46;27.58;66.27
76577;DHT22;65441;44.748;37.600;2023-06-10T11:48:19;27.17;63.60
76577;DHT22;65441;44.748;37.600;2023-06-10T11:50:48;27.09;64.17
76577;DHT22;65441;44.748;37.600;2023-06-10T11:53:27;26.92;64.82
76577;DHT22;65441;44.748;37.600;2023-06-10T11:56:04;26.56;67.17
76577;DHT22;65441;44.748;37.600;2023-06-10T11:58:48;26.39;66.04
76577;DHT22;65441;44.748;37.600;2023-06-10T12:01:27;25.97;68.43
76577;DHT22;65441;44.748;37.600;2023-06-10T12:04:02;25.65;70.28
76577;DHT22;65441;44.748;37.600;2023-06-10T12:06:42;25.43;72.61
76577;DHT22;65441;44.748;37.600;2023-06-10T12:09:16;25.30;73.72
76577;DHT22;65441;44.748;37.600;2023-06-10T12:11:48;25.22;73.67
76577;DHT22;65441;44.748;37.600;2023-06-10T12:17:08;24.57;78.35
76577;DHT22;65441;44.748;37.600;2023-06-10T12:19:41;24.46;78.43
76577;DHT22;65441;44.748;37.600;2023-06-10T12:22:10;24.39;80.01
76577;DHT22;65441;44.748;37.600;2023-06-10T12:24:44;24.39;77.86
76577;DHT22;65441;44.748;37.600;2023-06-10T12:27:14;24.47;78.76
76577;DHT22;65441;44.748;37.600;2023-06-10T12:29:51;24.51;80.66
76577;DHT22;65441;44.748;37.600;2023-06-10T12:32:35;24.50;77.53
76577;DHT22;65441;44.748;37.600;2023-06-10T12:35:05;24.41;77.25
76577;DHT22;65441;44.748;37.600;2023-06-10T12:37:35;24.47;77.11
76577;DHT22;65441;44.748;37.600;2023-06-10T12:40:05;25.08;76.51
76577;DHT22;65441;44.748;37.600;2023-06-10T12:42:38;25.37;75.21
76577;DHT22;65441;44.748;37.600;2023-06-10T12:45:09;25.37;73.03
76577;DHT22;65441;44.748;37.600;2023-06-10T12:47:40;25.43;72.35
76577;DHT22;65441;44.748;37.600;2023-06-10T12:50:10;25.50;75.64
76577;DHT22;65441;44.748;37.600;2023-06-10T12:52:40;25.51;75.23
76577;DHT22;65441;44.748;37.600;2023-06-10T12:55:10;25.61;74.83
76577;DHT22;65441;44.748;37.600;2023-06-10T12:57:49;25.38;75.15
76577;DHT22;65441;44.748;37.600;2023-06-10T13:00:27;25.52;74.55
76577;DHT22;65441;44.748;37.600;2023-06-10T13:03:00;25.13;71.92
76577;DHT22;65441;44.748;37.600;2023-06-10T13:05:32;24.88;75.04
76577;DHT22;65441;44.748;37.600;2023-06-10T13:08:06;24.73;74.62
76577;DHT22;65441;44.748;37.600;2023-06-10T13:10:38;24.75;75.82
76577;DHT22;65441;44.748;37.600;2023-06-10T13:13:08;24.78;77.13
76577;DHT22;65441;44.748;37.600;2023-06-10T13:15:37;24.83;74.68
76577;DHT22;65441;44.748;37.600;2023-06-10T13:18:09;24.87;74.72
76577;DHT22;65441;44.748;37.600;2023-06-10T13:20:40;24.90;75.91
76577;DHT22;65441;44.748;37.600;2023-06-10T13:23:10;24.80;74.80
76577;DHT22;65441;44.748;37.600;2023-06-10T13:25:41;24.91;75.83
76577;DHT22;65441;44.748;37.600;2023-06-10T13:28:12;24.73;76.82
76577;DHT22;65441;44.748;37.600;2023-06-10T13:30:40;24.59;76.14
76577;DHT22;65441;44.748;37.600;2023-06-10T13:33:15;24.21;74.98
76577;DHT22;65441;44.748;37.600;2023-06-10T13:35:45;23.99;74.86
76577;DHT22;65441;44.748;37.600;2023-06-10T13:38:17;23.86;75.04
76577;DHT22;65441;44.748;37.600;2023-06-10T13:40:48;23.70;75.92
76577;DHT22;65441;44.748;37.600;2023-06-10T13:43:18;23.56;76.94
76577;DHT22;65441;44.748;37.600;2023-06-10T13:45:52;23.58;77.07
76577;DHT22;65441;44.748;37.600;2023-06-10T13:48:27;23.58;77.52
76577;DHT22;65441;44.748;37.600;2023-06-10T13:50:57;23.66;77.38
76577;DHT22;65441;44.748;37.600;2023-06-10T13:53:27;23.57;77.72
76577;DHT22;65441;44.748;37.600;2023-06-10T13:55:56;23.59;77.47
76577;DHT22;65441;44.748;37.600;2023-06-10T13:58:25;23.64;76.86
76577;DHT22;65441;44.748;37.600;2023-06-10T14:00:54;23.50;78.19
76577;DHT22;65441;44.748;37.600;2023-06-10T14:03:27;23.55;77.46
76577;DHT22;65441;44.748;37.600;2023-06-10T14:05:56;23.54;77.95
76577;DHT22;65441;44.748;37.600;2023-06-10T14:08:25;23.49;78.05
76577;DHT22;65441;44.748;37.600;2023-06-10T14:10:54;23.45;77.33
76577;DHT22;65441;44.748;37.600;2023-06-10T14:13:23;23.38;77.55
76577;DHT22;65441;44.748;37.600;2023-06-10T14:15:54;23.35;77.34
76577;DHT22;65441;44.748;37.600;2023-06-10T14:18:25;23.37;77.34
76577;DHT22;65441;44.748;37.600;2023-06-10T14:20:57;23.37;77.94
76577;DHT22;65441;44.748;37.600;2023-06-10T14:23:27;23.42;77.19
76577;DHT22;65441;44.748;37.600;2023-06-10T14:25:56;23.39;77.52
76577;DHT22;65441;44.748;37.600;2023-06-10T14:28:26;23.37;77.75
76577;DHT22;65441;44.748;37.600;2023-06-10T14:30:56;23.36;77.93
76577;DHT22;65441;44.748;37.600;2023-06-10T14:33:25;23.30;78.12
76577;DHT22;65441;44.748;37.600;2023-06-10T14:35:54;23.38;77.30
76577;DHT22;65441;44.748;37.600;2023-06-10T14:38:29;23.41;78.30
76577;DHT22;65441;44.748;37.600;2023-06-10T14:41:02;23.37;80.01
76577;DHT22;65441;44.748;37.600;2023-06-10T14:43:32;23.52;77.98
76577;DHT22;65441;44.748;37.600;2023-06-10T14:46:03;23.55;78.27
76577;DHT22;65441;44.748;37.600;2023-06-10T14:48:35;23.47;78.46
76577;DHT22;65441;44.748;37.600;2023-06-10T14:51:04;23.43;78.30
76577;DHT22;65441;44.748;37.600;2023-06-10T14:53:38;23.41;78.36
76577;DHT22;65441;44.748;37.600;2023-06-10T14:56:07;23.34;78.71
76577;DHT22;65441;44.748;37.600;2023-06-10T14:58:39;23.32;78.27
76577;DHT22;65441;44.748;37.600;2023-06-10T15:01:11;23.41;79.59
76577;DHT22;65441;44.748;37.600;2023-06-10T15:03:42;23.50;77.28
76577;DHT22;65441;44.748;37.600;2023-06-10T15:06:14;23.56;77.48
76577;DHT22;65441;44.748;37.600;2023-06-10T15:08:46;23.61;76.81
76577;DHT22;65441;44.748;37.600;2023-06-10T15:11:17;23.64;77.58
76577;DHT22;65441;44.748;37.600;2023-06-10T15:13:46;23.72;77.35
76577;DHT22;65441;44.748;37.600;2023-06-10T15:16:18;23.74;75.34
76577;DHT22;65441;44.748;37.600;2023-06-10T15:18:49;23.80;76.21
76577;DHT22;65441;44.748;37.600;2023-06-10T15:21:22;23.55;76.66
76577;DHT22;65441;44.748;37.600;2023-06-10T15:23:55;23.35;77.17
76577;DHT22;65441;44.748;37.600;2023-06-10T15:26:25;23.44;76.76
76577;DHT22;65441;44.748;37.600;2023-06-10T15:28:59;23.47;76.79
76577;DHT22;65441;44.748;37.600;2023-06-10T15:31:33;23.43;76.73
76577;DHT22;65441;44.748;37.600;2023-06-10T15:34:02;23.39;76.93
76577;DHT22;65441;44.748;37.600;2023-06-10T15:36:31;23.38;78.47
76577;DHT22;65441;44.748;37.600;2023-06-10T15:39:03;23.25;78.11
76577;DHT22;65441;44.748;37.600;2023-06-10T15:41:35;23.36;77.94
76577;DHT22;65441;44.748;37.600;2023-06-10T15:44:05;23.30;78.01
76577;DHT22;65441;44.748;37.600;2023-06-10T15:46:33;23.36;78.40
76577;DHT22;65441;44.748;37.600;2023-06-10T15:49:11;23.26;78.64
76577;DHT22;65441;44.748;37.600;2023-06-10T15:51:57;23.37;78.05